Time;durP1;ratioP1;P1;durP2;ratioP2;P2;SDS_P1;SDS_P2;PMS_P1;PMS_P2;Temp;Humidity;BMP_temperature;BMP_pressure;BME280_temperature;BME280_humidity;BME280_pressure;Samples;Min_cycle;Max_cycle;Signal;HPM_P1;HPM_P2
2019/04/13 00:01:04;;;;;;;27.3;22;;;;;;;4.98;53.9082;963.3925;;;;
2019/04/13 00:04:16;;;;;;;28.9;23;;;;;;;4.78;54.30078;963.3431;;;;
2019/04/13 00:07:26;;;;;;;32.7;23.3;;;;;;;4.93;54.50488;963.3801;;;;
2019/04/13 00:10:55;;;;;;;30.9;23.6;;;;;;;4.83;54.65723;963.3684;;;;
2019/04/13 00:14:05;;;;;;;30.4;23.5;;;;;;;4.85;54.74805;963.3533;;;;
2019/04/13 00:17:15;;;;;;;31.9;24.6;;;;;;;5.05;54.16895;963.3512;;;;
2019/04/13 00:20:25;;;;;;;30.3;23.5;;;;;;;5.03;54.60742;963.3696;;;;
2019/04/13 00:23:35;;;;;;;30;23.4;;;;;;;4.71;55.67285;963.3243;;;;
2019/04/13 00:26:45;;;;;;;31.1;24.3;;;;;;;4.99;54.89746;963.3267;;;;
2019/04/13 00:29:55;;;;;;;34.1;24;;;;;;;4.82;55.17188;963.4294;;;;
2019/04/13 00:33:06;;;;;;;32;24.3;;;;;;;5.13;55.41016;963.4286;;;;
2019/04/13 00:36:16;;;;;;;30.7;23.9;;;;;;;5.25;55.08398;963.3947;;;;
2019/04/13 00:39:26;;;;;;;31.4;23.8;;;;;;;5.32;54.37988;963.3582;;;;
2019/04/13 00:42:36;;;;;;;31.2;22.8;;;;;;;5.14;54.56641;963.2946;;;;
2019/04/13 00:45:46;;;;;;;29.6;22.6;;;;;;;5.08;54.8877;963.2712;;;;
2019/04/13 00:48:56;;;;;;;30.5;23.7;;;;;;;5.22;54.80762;963.2992;;;;
2019/04/13 00:52:07;;;;;;;31.9;23.9;;;;;;;5.14;55.92773;963.3074;;;;
2019/04/13 00:55:17;;;;;;;29;22.9;;;;;;;4.96;56.08008;963.3251;;;;
2019/04/13 00:58:27;;;;;;;31.5;24.6;;;;;;;5.16;56.12793;963.2628;;;;
2019/04/13 01:01:38;;;;;;;31.2;24;;;;;;;5.16;55.70898;963.2332;;;;
2019/04/13 01:04:48;;;;;;;31.8;24;;;;;;;4.85;56.31641;963.1992;;;;
2019/04/13 01:07:58;;;;;;;32.7;25.4;;;;;;;4.82;57.31055;963.2834;;;;
2019/04/13 01:11:08;;;;;;;32.1;24.8;;;;;;;5.05;56.86035;963.2734;;;;
2019/04/13 01:14:18;;;;;;;35.9;25.2;;;;;;;5.05;57.73633;963.3127;;;;
2019/04/13 01:17:28;;;;;;;32.5;25.4;;;;;;;5.31;56.89258;963.3894;;;;
2019/04/13 01:20:38;;;;;;;34.6;26;;;;;;;5.04;57.71289;963.2966;;;;
2019/04/13 01:23:49;;;;;;;36.3;26.5;;;;;;;4.95;57.24023;963.2585;;;;
2019/04/13 01:26:59;;;;;;;33.2;25.8;;;;;;;4.76;56.81934;963.166;;;;
2019/04/13 01:30:09;;;;;;;31.8;24.9;;;;;;;4.69;57.88672;963.1294;;;;
2019/04/13 01:33:19;;;;;;;37.8;26.7;;;;;;;4.52;58.50977;963.0995;;;;
2019/04/13 01:36:29;;;;;;;37.3;27.2;;;;;;;4.54;58.3584;963.1533;;;;
2019/04/13 01:39:39;;;;;;;32.9;25.9;;;;;;;4.82;57.49707;963.1086;;;;
2019/04/13 01:42:49;;;;;;;35.4;27;;;;;;;4.55;59.00781;963.1261;;;;
2019/04/13 01:45:59;;;;;;;35;26.8;;;;;;;4.79;58.11719;963.0561;;;;
2019/04/13 01:49:09;;;;;;;35.6;26.7;;;;;;;4.75;58.08105;962.9998;;;;
2019/04/13 01:52:19;;;;;;;35;27.2;;;;;;;4.75;57.76172;963.0047;;;;
2019/04/13 01:55:29;;;;;;;37.4;26.3;;;;;;;4.41;58.03516;963.033;;;;
2019/04/13 01:58:39;;;;;;;34.9;26.4;;;;;;;4.62;57.48242;962.9783;;;;
2019/04/13 02:02:39;;;;;;;32.6;25.7;;;;;;;4.55;57.85547;962.9473;;;;
2019/04/13 02:11:15;;;;;;;37.5;27.1;;;;;;;4.65;57.76953;962.9117;;;;
2019/04/13 02:14:26;;;;;;;37.8;27.4;;;;;;;4.47;58.39258;962.9292;;;;
2019/04/13 02:17:36;;;;;;;36.4;26.7;;;;;;;4.44;58.47656;962.9497;;;;
2019/04/13 02:20:46;;;;;;;38.3;27.5;;;;;;;4.54;59.32324;962.9954;;;;
2019/04/13 02:23:56;;;;;;;38.9;27.4;;;;;;;4.59;58.81445;963.0969;;;;
2019/04/13 02:27:06;;;;;;;40.1;27.4;;;;;;;4.61;58.35645;963.1297;;;;
2019/04/13 02:30:16;;;;;;;37.2;27.8;;;;;;;4.66;58.49609;963.1758;;;;
2019/04/13 02:33:26;;;;;;;36.7;27.4;;;;;;;4.52;59.04688;963.1164;;;;
2019/04/13 02:36:36;;;;;;;37.4;28.4;;;;;;;4.59;59.27539;963.1361;;;;
2019/04/13 02:39:46;;;;;;;36.8;27.9;;;;;;;4.47;60.26758;963.0486;;;;
2019/04/13 02:42:57;;;;;;;37.5;27.9;;;;;;;4.35;60.10742;962.9675;;;;
2019/04/13 02:46:07;;;;;;;36.1;27.3;;;;;;;4.37;59.95801;962.9903;;;;
2019/04/13 02:49:17;;;;;;;37.7;28.6;;;;;;;4.19;60.93945;962.9992;;;;
2019/04/13 02:52:27;;;;;;;39.6;29.3;;;;;;;4.3;61.11914;963.0483;;;;
2019/04/13 02:55:37;;;;;;;38.6;29.2;;;;;;;4.22;61.24023;963.0129;;;;
2019/04/13 02:58:47;;;;;;;39.2;29.2;;;;;;;4.27;60.85254;962.9998;;;;
2019/04/13 03:01:57;;;;;;;44.2;29;;;;;;;4.06;61.29395;962.9092;;;;
2019/04/13 03:05:07;;;;;;;38.9;29.1;;;;;;;4.04;61.59668;962.8731;;;;
2019/04/13 03:08:17;;;;;;;39;29.3;;;;;;;3.84;61.98438;962.8578;;;;
2019/04/13 03:11:27;;;;;;;41.7;29.7;;;;;;;3.89;61.93457;962.9135;;;;
2019/04/13 03:14:37;;;;;;;41.6;30.4;;;;;;;3.77;62.32227;962.8652;;;;
2019/04/13 03:18:04;;;;;;;43.6;30.9;;;;;;;3.81;62.06738;962.8521;;;;
2019/04/13 03:21:15;;;;;;;42.8;30.3;;;;;;;3.87;62.02148;962.8378;;;;
2019/04/13 03:24:25;;;;;;;45.5;31.4;;;;;;;3.91;61.99219;962.7791;;;;
2019/04/13 03:27:35;;;;;;;43.7;31.2;;;;;;;3.68;62.13672;962.8644;;;;
2019/04/13 03:30:46;;;;;;;43.4;30.3;;;;;;;3.54;62.58496;962.8862;;;;
2019/04/13 03:33:56;;;;;;;42.7;29.5;;;;;;;3.53;62.63867;962.8237;;;;
2019/04/13 03:37:07;;;;;;;43.1;31;;;;;;;3.69;62.62891;962.7659;;;;
2019/04/13 03:40:17;;;;;;;42.2;30.2;;;;;;;3.73;63.21582;962.7445;;;;
2019/04/13 03:43:27;;;;;;;44;30.5;;;;;;;3.5;62.82031;962.7704;;;;
2019/04/13 03:46:38;;;;;;;43.3;30.9;;;;;;;3.34;63.24512;962.8072;;;;
2019/04/13 03:49:48;;;;;;;43.7;30;;;;;;;3.41;62.96094;962.7448;;;;
2019/04/13 03:52:58;;;;;;;42.3;30;;;;;;;3.5;62.50293;962.7408;;;;
2019/04/13 03:56:08;;;;;;;41.7;29.9;;;;;;;3.57;62.18457;962.7559;;;;
2019/04/13 03:59:18;;;;;;;43.3;30.4;;;;;;;3.5;62.04395;962.7576;;;;
2019/04/13 04:06:58;;;;;;;43;28.4;;;;;;;3.36;61.94531;962.7073;;;;
2019/04/13 04:10:09;;;;;;;43;29.6;;;;;;;3.4;62.33496;962.6014;;;;
2019/04/13 04:13:20;;;;;;;42.8;29.4;;;;;;;3.37;62.79004;962.6337;;;;
2019/04/13 04:16:31;;;;;;;44.2;30.4;;;;;;;3.39;62.45508;962.5846;;;;
2019/04/13 04:19:42;;;;;;;43;29.6;;;;;;;3.5;62.31543;962.5447;;;;
2019/04/13 04:22:52;;;;;;;44.7;30.7;;;;;;;3.37;62.09961;962.5914;;;;
2019/04/13 04:26:03;;;;;;;42.3;30.7;;;;;;;3.43;62.49219;962.5856;;;;
2019/04/13 04:29:13;;;;;;;44.3;29.8;;;;;;;3.61;62.21191;962.4706;;;;
2019/04/13 04:32:24;;;;;;;41.6;29.3;;;;;;;3.64;61.96582;962.506;;;;
2019/04/13 04:35:35;;;;;;;43.7;30.3;;;;;;;3.8;60.52344;962.5499;;;;
2019/04/13 04:38:45;;;;;;;42.5;30.6;;;;;;;3.46;62.11523;962.574;;;;
2019/04/13 04:41:56;;;;;;;44.9;30.5;;;;;;;3.36;62.39355;962.6217;;;;
2019/04/13 04:45:06;;;;;;;41.2;30.1;;;;;;;3.35;62.96191;962.6401;;;;
2019/04/13 04:48:17;;;;;;;44.2;29.3;;;;;;;3.36;62.70117;962.5193;;;;
2019/04/13 04:51:27;;;;;;;44;30.8;;;;;;;3.34;62.57715;962.6495;;;;
2019/04/13 04:54:38;;;;;;;40.3;30.1;;;;;;;3.36;62.4043;962.592;;;;
2019/04/13 04:57:48;;;;;;;43.6;31.1;;;;;;;3.2;63.07129;962.5856;;;;
2019/04/13 05:00:59;;;;;;;45.3;30.8;;;;;;;3.24;63.30469;962.6075;;;;
2019/04/13 05:04:10;;;;;;;45.6;31.5;;;;;;;3.47;62.59766;962.6454;;;;
2019/04/13 05:07:20;;;;;;;43.6;31.1;;;;;;;3.47;62.77246;962.6582;;;;
2019/04/13 05:10:31;;;;;;;44.1;30.1;;;;;;;3.23;63.52246;962.677;;;;
2019/04/13 05:13:41;;;;;;;43.7;30.2;;;;;;;3.41;62.6748;962.6383;;;;
2019/04/13 05:16:52;;;;;;;43.7;29.8;;;;;;;3.4;62.94727;962.6398;;;;
2019/04/13 05:20:02;;;;;;;43.4;30.7;;;;;;;3.79;61.7793;962.6707;;;;
2019/04/13 05:23:13;;;;;;;42.2;29.8;;;;;;;3.98;61.05078;962.6395;;;;
2019/04/13 05:26:23;;;;;;;43.9;31.2;;;;;;;3.57;62.25098;962.6911;;;;
2019/04/13 05:29:34;;;;;;;43;31.1;;;;;;;3.48;62.75195;962.6319;;;;
2019/04/13 05:36:27;;;;;;;42.2;29.5;;;;;;;3.31;63.07715;962.639;;;;
2019/04/13 05:39:38;;;;;;;44.4;30.8;;;;;;;3.76;62.80273;962.6825;;;;
2019/04/13 05:42:48;;;;;;;41.2;29.7;;;;;;;3.72;62.1416;962.7749;;;;
2019/04/13 05:45:59;;;;;;;42.4;30.7;;;;;;;3.81;61.93555;962.7584;;;;
2019/04/13 05:49:09;;;;;;;42.5;29.6;;;;;;;4.33;60.46582;962.8024;;;;
2019/04/13 05:52:20;;;;;;;45;30.4;;;;;;;4.69;58.9707;962.8134;;;;
2019/04/13 05:55:31;;;;;;;39.7;29.1;;;;;;;4.66;58.39746;962.8808;;;;
2019/04/13 05:58:41;;;;;;;40.7;28.4;;;;;;;4.71;58.39258;962.8544;;;;
2019/04/13 06:01:52;;;;;;;39.2;28.4;;;;;;;4.45;58.95996;962.8803;;;;
2019/04/13 06:05:02;;;;;;;39.7;28.9;;;;;;;4.74;59.25293;962.7914;;;;
2019/04/13 06:08:13;;;;;;;39;28.4;;;;;;;5.56;56.125;962.7944;;;;
2019/04/13 06:11:24;;;;;;;37.7;27;;;;;;;5.75;55.63281;962.8133;;;;
2019/04/13 06:14:34;;;;;;;37.1;28.1;;;;;;;5.47;55.36621;962.7902;;;;
2019/04/13 06:17:45;;;;;;;37.2;27.9;;;;;;;4.81;57.60547;962.8318;;;;
2019/04/13 06:20:56;;;;;;;37.2;27.9;;;;;;;4.78;57.93066;962.817;;;;
2019/04/13 06:24:06;;;;;;;35.8;23.7;;;;;;;4.8;57.45117;962.88;;;;
2019/04/13 06:27:17;;;;;;;38;26.9;;;;;;;4.8;57.66992;962.8406;;;;
2019/04/13 06:34:19;;;;;;;34.7;26.1;;;;;;;5.82;54.44434;962.8744;;;;
2019/04/13 06:37:30;;;;;;;37.2;25.8;;;;;;;5.49;54.31445;962.8519;;;;
2019/04/13 06:40:40;;;;;;;32.3;24.4;;;;;;;6.32;52.29395;962.8395;;;;
2019/04/13 06:43:51;;;;;;;33.8;24.9;;;;;;;6.37;52.17969;962.7874;;;;
2019/04/13 06:47:02;;;;;;;34.8;25;;;;;;;6.2;51.125;962.8733;;;;
2019/04/13 06:50:12;;;;;;;34.6;24.6;;;;;;;6.24;51.73438;962.8139;;;;
2019/04/13 06:53:23;;;;;;;33;24.7;;;;;;;6.48;51.07031;962.8691;;;;
2019/04/13 06:56:33;;;;;;;33.5;24.2;;;;;;;6.45;50.08691;962.8387;;;;
2019/04/13 06:59:44;;;;;;;32.9;24.3;;;;;;;6.17;49.30664;962.8727;;;;
2019/04/13 07:02:54;;;;;;;30.1;23.3;;;;;;;6.37;48.81152;962.7953;;;;
2019/04/13 07:06:05;;;;;;;30.2;22.8;;;;;;;6.23;48.61914;962.8663;;;;
2019/04/13 07:09:22;;;;;;;32.1;23.3;;;;;;;6.33;48.03613;962.8894;;;;
2019/04/13 07:12:52;;;;;;;32.8;23;;;;;;;6.95;47.32324;962.8271;;;;
2019/04/13 07:16:18;;;;;;;31.4;22.6;;;;;;;6.74;47.21191;962.9186;;;;
2019/04/13 07:19:29;;;;;;;30.3;23;;;;;;;6.87;47.18164;962.8749;;;;
2019/04/13 07:22:39;;;;;;;34.5;21.4;;;;;;;6.47;46.18164;962.9342;;;;
2019/04/13 07:25:50;;;;;;;32.8;23;;;;;;;6.26;47.85156;962.8717;;;;
2019/04/13 07:29:00;;;;;;;31.3;23.1;;;;;;;6.67;46.89648;962.8278;;;;
2019/04/13 07:32:11;;;;;;;31.7;22.4;;;;;;;7.18;45.55176;962.8625;;;;
2019/04/13 07:35:22;;;;;;;29.3;22.2;;;;;;;6.72;45.11621;962.8005;;;;
2019/04/13 07:38:32;;;;;;;30.1;22.8;;;;;;;7.07;44.06152;962.8317;;;;
2019/04/13 07:41:42;;;;;;;29.1;21.5;;;;;;;7.31;42.8291;962.8137;;;;
2019/04/13 07:45:04;;;;;;;29.8;21.9;;;;;;;7.97;41.40332;962.7883;;;;
2019/04/13 07:48:58;;;;;;;27.2;20.1;;;;;;;9.79;37.99414;962.7658;;;;
2019/04/13 07:52:18;;;;;;;27.9;20.4;;;;;;;10.47;35.43066;962.7922;;;;
2019/04/13 07:55:29;;;;;;;26.3;19.9;;;;;;;10.5;35.72266;962.8524;;;;
2019/04/13 07:58:40;;;;;;;27.4;20.8;;;;;;;10.45;35.69629;962.8798;;;;
2019/04/13 08:01:50;;;;;;;25.7;19.9;;;;;;;11.37;33.63281;962.8176;;;;
2019/04/13 08:05:02;;;;;;;23;19.1;;;;;;;10.59;33.30566;962.8161;;;;
2019/04/13 08:08:13;;;;;;;25.2;19.8;;;;;;;12.14;32.07617;962.832;;;;
2019/04/13 08:11:23;;;;;;;23.1;18.3;;;;;;;11.37;32.14063;962.8694;;;;
2019/04/13 08:14:34;;;;;;;23.3;18.8;;;;;;;11.73;31.64355;962.7938;;;;
2019/04/13 08:17:44;;;;;;;23.3;18.4;;;;;;;11.36;32.38477;962.7717;;;;
2019/04/13 08:20:55;;;;;;;24.2;19.5;;;;;;;11.88;32.43555;962.6756;;;;
2019/04/13 08:24:05;;;;;;;24.2;18.6;;;;;;;11.55;32.37793;962.7173;;;;
2019/04/13 08:27:16;;;;;;;27;19.5;;;;;;;10.51;34.31152;962.731;;;;
2019/04/13 08:30:29;;;;;;;26.4;20.6;;;;;;;10.92;33.81055;962.7444;;;;
2019/04/13 08:33:40;;;;;;;26.3;20.4;;;;;;;10.45;33.97363;962.6467;;;;
2019/04/13 08:36:50;;;;;;;24.6;19.7;;;;;;;11.67;32.40918;962.6669;;;;
2019/04/13 08:40:01;;;;;;;24.9;19;;;;;;;11.87;32.42285;962.5948;;;;
2019/04/13 08:43:12;;;;;;;25.8;20.1;;;;;;;11.43;33.29297;962.6592;;;;
2019/04/13 08:46:22;;;;;;;26.7;19.5;;;;;;;11.16;33.27246;962.5762;;;;
2019/04/13 08:49:33;;;;;;;24.6;19.3;;;;;;;11.34;32.33887;962.5449;;;;
2019/04/13 08:52:44;;;;;;;24.3;19.1;;;;;;;12.09;31.46973;962.5222;;;;
2019/04/13 08:55:54;;;;;;;23.8;19.3;;;;;;;12.5;30.80664;962.5033;;;;
2019/04/13 08:59:05;;;;;;;24.2;18.8;;;;;;;12.86;31.96094;962.4908;;;;
2019/04/13 09:02:15;;;;;;;24.1;19;;;;;;;13.51;29.60254;962.4347;;;;
2019/04/13 09:05:26;;;;;;;23.4;19.1;;;;;;;13.11;29.13965;962.3961;;;;
2019/04/13 09:08:37;;;;;;;24.1;19.2;;;;;;;12.51;30.21582;962.5452;;;;
2019/04/13 09:11:47;;;;;;;21.1;18.4;;;;;;;13.29;29.05078;962.5367;;;;
2019/04/13 09:14:58;;;;;;;23.7;19;;;;;;;13.17;28.68457;962.4708;;;;
2019/04/13 09:18:17;;;;;;;24.2;19.1;;;;;;;12.89;30.17578;962.4425;;;;
2019/04/13 09:21:32;;;;;;;27.1;20.4;;;;;;;12.44;30.67969;962.4113;;;;
2019/04/13 09:24:43;;;;;;;22.8;19.3;;;;;;;12.28;31.91797;962.3984;;;;
2019/04/13 09:27:54;;;;;;;27.1;20.1;;;;;;;10.19;33.04199;962.467;;;;
2019/04/13 09:31:04;;;;;;;27.5;21.2;;;;;;;10.33;34.00781;962.4504;;;;
2019/04/13 09:34:15;;;;;;;27.1;20.5;;;;;;;10.3;33.32813;962.4026;;;;
2019/04/13 09:37:25;;;;;;;25.7;20.2;;;;;;;10.38;33.40039;962.3413;;;;
2019/04/13 09:40:36;;;;;;;27.4;20.1;;;;;;;10.76;33.56348;962.242;;;;
2019/04/13 09:44:32;;;;;;;27.9;20.2;;;;;;;10.57;33.59375;962.2139;;;;
2019/04/13 09:47:42;;;;;;;27.8;21;;;;;;;11.08;32.97656;962.1969;;;;
2019/04/13 09:50:53;;;;;;;25.6;20.8;;;;;;;10.7;32.76953;962.163;;;;
2019/04/13 09:54:03;;;;;;;26.2;20.6;;;;;;;10.82;32.90137;962.2215;;;;
2019/04/13 09:57:14;;;;;;;26.1;20.5;;;;;;;11.06;33.87695;962.057;;;;
2019/04/13 10:00:25;;;;;;;28.6;21.1;;;;;;;10.67;32.90137;962.1021;;;;
2019/04/13 10:03:35;;;;;;;29.7;21.2;;;;;;;10.83;33.86914;962.0131;;;;
2019/04/13 10:06:46;;;;;;;28.6;21.1;;;;;;;10.14;33.60449;961.9766;;;;
2019/04/13 10:09:56;;;;;;;26.6;20.9;;;;;;;10.13;34.34766;961.9486;;;;
2019/04/13 10:13:56;;;;;;;26.2;20.6;;;;;;;11.25;32.66602;961.947;;;;
2019/04/13 10:19:01;;;;;;;28.2;21.6;;;;;;;10.99;34.36035;961.9021;;;;
2019/04/13 10:22:11;;;;;;;27.5;21.2;;;;;;;10.82;34.04688;961.7978;;;;
2019/04/13 10:25:21;;;;;;;28.5;21;;;;;;;10.07;34.69824;961.8047;;;;
2019/04/13 10:28:31;;;;;;;30.4;21.8;;;;;;;10.57;34.31738;961.8116;;;;
2019/04/13 10:31:42;;;;;;;26.6;21.2;;;;;;;9.89;34.85059;961.8184;;;;
2019/04/13 10:34:52;;;;;;;28.5;21.6;;;;;;;10.79;34.97852;961.6981;;;;
2019/04/13 10:38:02;;;;;;;27.8;21.6;;;;;;;10.17;35.45117;961.7787;;;;
2019/04/13 10:41:12;;;;;;;29.4;21.8;;;;;;;10.5;35.84473;961.7863;;;;
2019/04/13 10:44:26;;;;;;;29.7;21.1;;;;;;;9.97;35.34473;961.606;;;;
2019/04/13 10:47:44;;;;;;;27.8;21.3;;;;;;;10.59;35.66309;961.6711;;;;
2019/04/13 10:51:10;;;;;;;27.1;21.1;;;;;;;10.96;35.19238;961.5821;;;;
2019/04/13 10:54:21;;;;;;;31.6;22.9;;;;;;;11.77;33.75391;961.594;;;;
2019/04/13 10:57:31;;;;;;;26.8;21.6;;;;;;;11.39;32.14258;961.5574;;;;
2019/04/13 11:00:41;;;;;;;29;22.1;;;;;;;11.51;33.82324;961.5237;;;;
2019/04/13 11:03:51;;;;;;;29.4;22.1;;;;;;;12.17;31.69824;961.5421;;;;
2019/04/13 11:07:02;;;;;;;30.3;21.9;;;;;;;12.17;32.83594;961.4822;;;;
2019/04/13 11:10:13;;;;;;;26.7;20.6;;;;;;;11.9;32.89355;961.3744;;;;
2019/04/13 11:13:24;;;;;;;28.7;21.9;;;;;;;11.72;33.07031;961.3453;;;;
2019/04/13 11:16:34;;;;;;;28.9;21;;;;;;;11.7;33.62598;961.3441;;;;
2019/04/13 11:19:44;;;;;;;26;21.1;;;;;;;11.4;33.93652;961.3568;;;;
2019/04/13 11:22:55;;;;;;;28.6;22.4;;;;;;;12.04;33.69727;961.2774;;;;
2019/04/13 11:26:05;;;;;;;27.9;21.9;;;;;;;12.03;32.31348;961.3264;;;;
2019/04/13 11:29:15;;;;;;;28.2;22;;;;;;;11.56;33.34668;961.2674;;;;
2019/04/13 11:32:25;;;;;;;30.9;22.3;;;;;;;12.33;33.44043;961.27;;;;
2019/04/13 11:35:36;;;;;;;27.4;22.1;;;;;;;12.29;32.44336;961.1803;;;;
2019/04/13 11:38:46;;;;;;;27.7;22.5;;;;;;;12.53;31.56836;961.1786;;;;
2019/04/13 11:46:29;;;;;;;29.7;22.6;;;;;;;12.86;31.02246;961.0825;;;;
2019/04/13 11:49:40;;;;;;;27.6;22.7;;;;;;;12.54;31.99414;961.1245;;;;
2019/04/13 11:52:51;;;;;;;28.2;21.8;;;;;;;12.22;31.84668;961.2064;;;;
2019/04/13 11:56:02;;;;;;;28.8;22.4;;;;;;;12.6;31.18262;961.1774;;;;
2019/04/13 11:59:18;;;;;;;31.3;22.4;;;;;;;12.09;31.26855;961.1677;;;;
2019/04/13 12:02:38;;;;;;;29.1;22.9;;;;;;;12.55;30.36426;961.0978;;;;
2019/04/13 12:05:50;;;;;;;32.6;22.8;;;;;;;12.38;32.1377;961.1511;;;;
2019/04/13 12:09:08;;;;;;;29.4;23.4;;;;;;;11.72;31.92188;961.1337;;;;
2019/04/13 12:24:14;;;;;;;28.6;22.7;;;;;;;12.35;32.3252;961.1683;;;;
2019/04/13 12:27:27;;;;;;;31.7;23.9;;;;;;;11.94;32.76367;961.0829;;;;
2019/04/13 12:30:39;;;;;;;30.7;22.7;;;;;;;12.12;32.19727;960.9947;;;;
2019/04/13 12:33:51;;;;;;;29.6;24.2;;;;;;;11.93;33.05273;960.9721;;;;
2019/04/13 12:37:01;;;;;;;29.2;22.9;;;;;;;11.91;33.20703;960.962;;;;
2019/04/13 12:40:21;;;;;;;30.1;23;;;;;;;11.2;33.11914;960.9803;;;;
2019/04/13 12:43:32;;;;;;;32;24.5;;;;;;;11.18;34.44238;960.9614;;;;
2019/04/13 12:46:42;;;;;;;30.8;24.2;;;;;;;11.63;32.92871;960.8123;;;;
2019/04/13 12:49:53;;;;;;;29;24.1;;;;;;;11.92;33.30859;960.8563;;;;
2019/04/13 12:53:03;;;;;;;30.7;24.6;;;;;;;11.61;34.12012;960.8879;;;;
2019/04/13 12:56:13;;;;;;;30.9;23.6;;;;;;;11.39;35.14941;960.839;;;;
2019/04/13 12:59:23;;;;;;;31.7;24.5;;;;;;;11.89;33.77441;960.8872;;;;
2019/04/13 13:02:38;;;;;;;32;25.3;;;;;;;11.48;33.53027;960.7891;;;;
2019/04/13 13:05:51;;;;;;;32.5;24.6;;;;;;;11.5;34.15625;960.7823;;;;
2019/04/13 13:09:01;;;;;;;31.6;25.2;;;;;;;11.92;32.02539;960.7405;;;;
2019/04/13 13:12:11;;;;;;;38.8;26.9;;;;;;;12.22;32.11523;960.6609;;;;
2019/04/13 13:15:21;;;;;;;31;25.1;;;;;;;12.04;33.09375;960.6333;;;;
2019/04/13 13:18:32;;;;;;;29.9;23.6;;;;;;;11.38;32.67578;960.6076;;;;
2019/04/13 13:21:42;;;;;;;32.3;23.8;;;;;;;11.23;32.9209;960.6653;;;;
2019/04/13 13:24:53;;;;;;;35.6;25;;;;;;;11.74;31.82324;960.5865;;;;
2019/04/13 13:28:04;;;;;;;31.5;24.6;;;;;;;11.33;33.31836;960.5616;;;;
2019/04/13 13:31:13;;;;;;;30.6;24.6;;;;;;;11.59;33.58398;960.5667;;;;
2019/04/13 13:34:24;;;;;;;33;25.4;;;;;;;11.19;32.98535;960.5623;;;;
2019/04/13 13:37:34;;;;;;;31.4;24.7;;;;;;;11.6;33.19434;960.6824;;;;
2019/04/13 13:40:44;;;;;;;31.4;24.2;;;;;;;11.48;32.33887;960.5117;;;;
2019/04/13 13:43:54;;;;;;;30.1;24.6;;;;;;;11.39;32.93359;960.4279;;;;
2019/04/13 13:47:04;;;;;;;32.1;24.7;;;;;;;11.62;32.24902;960.4249;;;;
2019/04/13 13:50:15;;;;;;;31.4;24.6;;;;;;;11.9;32.78223;960.3969;;;;
2019/04/13 13:53:25;;;;;;;32.1;24.6;;;;;;;12.22;31.37891;960.3661;;;;
2019/04/13 13:56:35;;;;;;;31.1;24.9;;;;;;;12.26;31.53809;960.4131;;;;
2019/04/13 13:59:46;;;;;;;32.1;24.2;;;;;;;12.04;30.56152;960.3476;;;;
2019/04/13 14:02:56;;;;;;;33.4;25;;;;;;;11.63;31.74902;960.2972;;;;
2019/04/13 14:06:07;;;;;;;32.5;24.8;;;;;;;12.29;31.98633;960.266;;;;
2019/04/13 14:09:18;;;;;;;30.9;23.4;;;;;;;11.75;32.61523;960.3248;;;;
2019/04/13 14:12:28;;;;;;;31.5;23;;;;;;;11.71;32.73438;960.3741;;;;
2019/04/13 14:15:39;;;;;;;31.7;23.9;;;;;;;11.42;33.46973;960.3343;;;;
2019/04/13 14:18:49;;;;;;;31.8;24.6;;;;;;;11.47;32.86133;960.2922;;;;
2019/04/13 14:21:59;;;;;;;32.2;24.4;;;;;;;11.24;34.31348;960.3272;;;;
2019/04/13 14:25:09;;;;;;;31.7;24.9;;;;;;;11.25;34.16992;960.347;;;;
2019/04/13 14:28:19;;;;;;;33.1;25.1;;;;;;;11.37;34.25684;960.3063;;;;
2019/04/13 14:31:29;;;;;;;33.3;25.8;;;;;;;11.4;32.61035;960.3152;;;;
2019/04/13 14:34:40;;;;;;;34.2;25.4;;;;;;;11.2;32.37305;960.2841;;;;
2019/04/13 14:37:50;;;;;;;33.5;26;;;;;;;11.46;32.81641;960.3201;;;;
2019/04/13 14:41:00;;;;;;;33;25.5;;;;;;;12;32.20996;960.202;;;;
2019/04/13 14:44:10;;;;;;;32.6;25.4;;;;;;;11.81;32.75391;960.2303;;;;
2019/04/13 14:47:20;;;;;;;36.7;26.2;;;;;;;11.33;32.52832;960.2932;;;;
2019/04/13 14:50:34;;;;;;;38.2;27.3;;;;;;;11.63;33.19727;960.2584;;;;
2019/04/13 14:53:44;;;;;;;50.5;35.7;;;;;;;11.2;33.7207;960.2502;;;;
2019/04/13 14:56:54;;;;;;;44.5;31.7;;;;;;;11.18;33.86426;960.2781;;;;
2019/04/13 15:00:05;;;;;;;35.8;25.7;;;;;;;11.18;34.13086;960.317;;;;
2019/04/13 15:03:16;;;;;;;39.7;28.4;;;;;;;11.09;34.71387;960.3459;;;;
2019/04/13 15:06:26;;;;;;;33.7;24.9;;;;;;;10.97;34.03613;960.3616;;;;
2019/04/13 15:09:36;;;;;;;41;27.9;;;;;;;10.74;34.7627;960.435;;;;
2019/04/13 15:12:46;;;;;;;49.4;31.8;;;;;;;11;34.83984;960.2592;;;;
2019/04/13 15:15:57;;;;;;;40;27.6;;;;;;;11.41;34.26074;960.3052;;;;
2019/04/13 15:19:16;;;;;;;44.1;29.7;;;;;;;11.17;33.54004;960.2493;;;;
2019/04/13 15:22:27;;;;;;;38.3;27.1;;;;;;;11.25;34.41504;960.2732;;;;
2019/04/13 15:25:37;;;;;;;37.6;27.4;;;;;;;11.71;34.27246;960.2662;;;;
2019/04/13 15:28:47;;;;;;;37.5;27;;;;;;;11.71;33.51465;960.2003;;;;
2019/04/13 15:31:58;;;;;;;35.3;24.7;;;;;;;11.03;33.5625;960.1425;;;;
2019/04/13 15:35:08;;;;;;;38.2;27.8;;;;;;;11.28;32.90332;960.1617;;;;
2019/04/13 15:38:18;;;;;;;41.7;28.8;;;;;;;10.92;34.84375;960.2388;;;;
2019/04/13 15:41:29;;;;;;;39.5;28.7;;;;;;;11.01;34.96289;960.1236;;;;
2019/04/13 15:44:39;;;;;;;34.6;26;;;;;;;10.41;35.68066;960.2784;;;;
2019/04/13 15:47:49;;;;;;;34.1;26.8;;;;;;;10.38;36.1123;960.1738;;;;
2019/04/13 15:50:59;;;;;;;34.7;27;;;;;;;10.32;35.70703;960.1816;;;;
2019/04/13 15:54:09;;;;;;;36.9;28.1;;;;;;;10.75;35.0752;960.127;;;;
2019/04/13 15:57:20;;;;;;;34.4;26;;;;;;;11.02;34.3623;960.1614;;;;
2019/04/13 16:00:30;;;;;;;33;24.6;;;;;;;10.58;35.63965;960.1955;;;;
2019/04/13 16:03:41;;;;;;;36.5;28.2;;;;;;;10.36;35.26563;960.2542;;;;
2019/04/13 16:06:51;;;;;;;36.1;26;;;;;;;10.51;35.21191;960.257;;;;
2019/04/13 16:10:12;;;;;;;38.9;26.7;;;;;;;10.35;35.62109;960.29;;;;
2019/04/13 16:13:24;;;;;;;35.8;26.2;;;;;;;10.38;36.06836;960.3074;;;;
2019/04/13 16:16:34;;;;;;;35.4;26.2;;;;;;;10.32;36.34082;960.3499;;;;
2019/04/13 16:19:44;;;;;;;36.5;27.4;;;;;;;10.46;36.83008;960.3972;;;;
2019/04/13 16:22:54;;;;;;;33.5;24.9;;;;;;;10.68;35.32617;960.369;;;;
2019/04/13 16:26:04;;;;;;;33.6;24.8;;;;;;;10.47;35.86426;960.448;;;;
2019/04/13 16:29:43;;;;;;;35.7;25.6;;;;;;;10.82;35.30371;960.4939;;;;
2019/04/13 16:33:12;;;;;;;34.1;24.8;;;;;;;10.65;35.36816;960.5544;;;;
2019/04/13 16:36:26;;;;;;;32;24.9;;;;;;;10.64;35.58984;960.5853;;;;
2019/04/13 16:39:36;;;;;;;35.4;25.7;;;;;;;10.47;36.98633;960.6761;;;;
2019/04/13 16:42:46;;;;;;;34.8;26.1;;;;;;;10.25;37.09082;960.738;;;;
2019/04/13 16:46:19;;;;;;;35.2;26.5;;;;;;;10.32;37.85156;960.7551;;;;
2019/04/13 16:49:58;;;;;;;36.7;26.7;;;;;;;9.9;36.71582;960.7903;;;;
2019/04/13 16:53:17;;;;;;;34.1;25.9;;;;;;;10.24;36.42285;960.7916;;;;
2019/04/13 16:56:31;;;;;;;38.5;27.7;;;;;;;9.75;39.47754;960.8649;;;;
2019/04/13 17:03:56;;;;;;;36.6;26.9;;;;;;;9.24;44.81543;960.9274;;;;
2019/04/13 17:05:35;;;;;;;39.4;27.6;;;;;;;9.31;45.41016;961.0095;;;;
2019/04/13 17:08:45;;;;;;;38.7;28.7;;;;;;;9.43;45.65625;961.0075;;;;
2019/04/13 17:11:56;;;;;;;37.3;27.4;;;;;;;8.8;47.03027;961.0698;;;;
2019/04/13 17:15:07;;;;;;;40.2;28.1;;;;;;;8.77;47.67969;961.0388;;;;
2019/04/13 17:18:05;;;;;;;41.7;28.7;;;;;;;9.02;47.71777;961.0266;;;;
2019/04/13 17:20:34;;;;;;;42.2;29.2;;;;;;;8.92;45.8457;960.9788;;;;
2019/04/13 17:25:29;;;;;;;36.7;28.1;;;;;;;9.04;44.83984;960.9681;;;;
2019/04/13 17:30:37;;;;;;;37.2;28.3;;;;;;;8.87;45.50879;960.9413;;;;
2019/04/13 17:32:57;;;;;;;40.7;28;;;;;;;8.7;45.78906;960.9663;;;;
2019/04/13 17:35:16;;;;;;;37.1;27.6;;;;;;;8.81;44.27344;960.9787;;;;
2019/04/13 17:37:38;;;;;;;37.1;27.5;;;;;;;8.98;44.81055;960.9714;;;;
2019/04/13 17:40:04;;;;;;;39;28.2;;;;;;;9.27;44.09863;961.0617;;;;
2019/04/13 17:42:56;;;;;;;36.8;28.1;;;;;;;9.09;43.7373;961.04;;;;
2019/04/13 17:44:59;;;;;;;37.1;27.5;;;;;;;8.85;44.03418;961.1031;;;;
2019/04/13 17:47:37;;;;;;;39.8;28.9;;;;;;;8.62;44.46484;961.1384;;;;
2019/04/13 17:52:44;;;;;;;40.3;28.3;;;;;;;8.36;45.41016;961.122;;;;
2019/04/13 17:57:30;;;;;;;39;27.9;;;;;;;8.48;45.33398;961.0353;;;;
2019/04/13 17:59:59;;;;;;;37.2;27.5;;;;;;;8.39;45.69141;961.0105;;;;
2019/04/13 18:02:32;;;;;;;37.8;26.8;;;;;;;8.35;45.21094;961.0413;;;;
2019/04/13 18:07:11;;;;;;;37.9;27.3;;;;;;;8.51;45.62598;961.0912;;;;
2019/04/13 18:09:34;;;;;;;39.7;28.3;;;;;;;8.68;45.88672;961.0934;;;;
2019/04/13 18:12:00;;;;;;;42.4;27.8;;;;;;;8.59;45.93359;961.0822;;;;
2019/04/13 18:14:16;;;;;;;40.8;28.4;;;;;;;8.48;46.28613;961.1376;;;;
2019/04/13 18:17:18;;;;;;;38.7;27.2;;;;;;;8.71;45.19238;961.0726;;;;
2019/04/13 18:19:20;;;;;;;39;27.9;;;;;;;8.66;44.63477;961.086;;;;
2019/04/13 18:21:31;;;;;;;39;27.7;;;;;;;8.77;44.7334;961.2076;;;;
2019/04/13 18:23:57;;;;;;;37.7;26.6;;;;;;;8.55;45.66309;961.1732;;;;
2019/04/13 18:26:23;;;;;;;39.5;26.9;;;;;;;8.48;45.68945;961.1635;;;;
2019/04/13 18:28:49;;;;;;;37.5;26.6;;;;;;;8.39;45.90039;961.218;;;;
2019/04/13 18:31:13;;;;;;;38.7;27.3;;;;;;;8.11;46.46777;961.3398;;;;
2019/04/13 18:33:38;;;;;;;37.8;27.8;;;;;;;8.43;45.87109;961.3027;;;;
2019/04/13 18:36:03;;;;;;;36.6;27.2;;;;;;;8.41;45.62598;961.3055;;;;
2019/04/13 18:38:29;;;;;;;40.2;27.4;;;;;;;8.57;45.44336;961.3819;;;;
2019/04/13 18:40:54;;;;;;;41.4;28.2;;;;;;;8.7;45.65723;961.3787;;;;
2019/04/13 18:43:19;;;;;;;39.4;27.9;;;;;;;8.54;45.4082;961.4066;;;;
2019/04/13 18:45:44;;;;;;;36.2;27.4;;;;;;;8.77;44.63477;961.4053;;;;
2019/04/13 18:48:11;;;;;;;38;27.9;;;;;;;8.96;44.28809;961.4394;;;;